Airfield :
LOGIN :

Register | Disclaimer

   EN    FR    IT 

 










Legend :    VFR   Marginal VFR   IFR   Intensive IFR   Very Intensive IFR
Visi :
Ceiling :
>= 8 km
>= 3000ft
5 to 8 km
1000 to 3000 ft
1500m to 5 km
500 to 1000 ft
800 to 1500m
200 to 500 ft
< 800m
< 200 ft
Symbols :   Thunderstorms  Fog  Heavy snow  Heavy precipitations  Wind > 20 kt
SIGMETs :     Misc.  Thunderstorms  Icing  Turbulence  Mountain Waves  Volcanic Ashes






- Airport Elevation : 15 ft
- IATA code : BHD


EGAC - George Best Belfast City

CURRENT METAR :
  • 021950Z AUTO 29004KT 240V340 9999 SCT026/// 06/03 Q1015

EXPIRED METARs :
  • 021920Z AUTO 32006KT 260V010 9999 SCT032/// 06/03 Q1015
  • 021850Z AUTO 31007KT 240V010 9999 BKN038/// BKN049/// 08/02 Q1015
  • 021820Z AUTO 32008KT 9999 NCD 08/02 Q1015
  • 021750Z AUTO 32009KT 290V360 9999 SCT035/// BKN046/// 08/02 Q1015
  • 021720Z AUTO 31008KT 270V010 9999 SCT039/// OVC048/// 08/01 Q1015

TAF TAF EGAC
Valid from the 02 at 18:00 until the 02 at 21:00 UTC


021657Z 0218/0221 31008KT 9999 FEW025 SCT040
PROB30
TEMPO 0218/0221 9000 -SHRA
ATIS : +44 02890 935 124



MET'MAP, your aeronautical weather chart ! - Copyright ORBIFLY December 2007 - Disclaimer

ORBIFLY MET'MAP TEAM :

Programming & Development : Alexandra Zaïnal
Concept & original design : Baudouin d'Aumeries
Assistance for programming : Marc-Olivier Méhu
Technical & hardware support : Manuel Goepfert

Contact : metmap@orbifly.com




SOURCES & CREDITS :

   NOAA